sensor_id;sensor_type;location;lat;lon;timestamp;pressure;altitude;pressure_sealevel;temperature;humidity
54900;BME280;40801;41.924;25.562;2023-04-04T00:00:53;98317.91;;;12.37;82.76
54900;BME280;40801;41.924;25.562;2023-04-04T00:03:19;98307.53;;;12.39;82.33
54900;BME280;40801;41.924;25.562;2023-04-04T00:05:45;98305.97;;;12.38;83.11
54900;BME280;40801;41.924;25.562;2023-04-04T00:08:10;98310.69;;;12.41;82.42
54900;BME280;40801;41.924;25.562;2023-04-04T00:10:36;98309.13;;;12.40;82.65
54900;BME280;40801;41.924;25.562;2023-04-04T00:13:01;98300.66;;;12.42;83.16
54900;BME280;40801;41.924;25.562;2023-04-04T00:15:27;98299.09;;;12.41;83.56
54900;BME280;40801;41.924;25.562;2023-04-04T00:17:52;98298.09;;;12.46;83.29
54900;BME280;40801;41.924;25.562;2023-04-04T00:20:18;98299.66;;;12.47;82.91
54900;BME280;40801;41.924;25.562;2023-04-04T00:22:43;98290.06;;;12.49;82.46
54900;BME280;40801;41.924;25.562;2023-04-04T00:25:09;98296.28;;;12.50;82.83
54900;BME280;40801;41.924;25.562;2023-04-04T00:27:35;98286.59;;;12.49;82.86
54900;BME280;40801;41.924;25.562;2023-04-04T00:30:00;98283.53;;;12.50;82.27
54900;BME280;40801;41.924;25.562;2023-04-04T00:32:26;98276.47;;;12.46;83.15
54900;BME280;40801;41.924;25.562;2023-04-04T00:34:52;98273.63;;;12.42;83.33
54900;BME280;40801;41.924;25.562;2023-04-04T00:37:18;98291.09;;;12.45;83.12
54900;BME280;40801;41.924;25.562;2023-04-04T00:39:43;98298.44;;;12.44;82.53
54900;BME280;40801;41.924;25.562;2023-04-04T00:42:09;98312.94;;;12.52;82.35
54900;BME280;40801;41.924;25.562;2023-04-04T00:44:34;98318.47;;;12.43;82.79
54900;BME280;40801;41.924;25.562;2023-04-04T00:47:01;98324.78;;;12.47;82.69
54900;BME280;40801;41.924;25.562;2023-04-04T00:49:26;98325.56;;;12.48;82.91
54900;BME280;40801;41.924;25.562;2023-04-04T00:51:52;98322.88;;;12.48;82.42
54900;BME280;40801;41.924;25.562;2023-04-04T00:54:18;98339.22;;;12.39;84.20
54900;BME280;40801;41.924;25.562;2023-04-04T00:56:44;98328.50;;;12.43;83.42
54900;BME280;40801;41.924;25.562;2023-04-04T00:59:10;98316.22;;;12.45;83.36
54900;BME280;40801;41.924;25.562;2023-04-04T01:01:36;98315.75;;;12.43;83.60
54900;BME280;40801;41.924;25.562;2023-04-04T01:04:01;98313.88;;;12.44;83.37
54900;BME280;40801;41.924;25.562;2023-04-04T01:06:27;98308.47;;;12.44;83.48
54900;BME280;40801;41.924;25.562;2023-04-04T01:08:55;98309.56;;;12.43;83.43
54900;BME280;40801;41.924;25.562;2023-04-04T01:11:21;98294.47;;;12.41;83.52
54900;BME280;40801;41.924;25.562;2023-04-04T01:13:47;98290.88;;;12.37;83.51
54900;BME280;40801;41.924;25.562;2023-04-04T01:16:12;98282.44;;;12.39;83.50
54900;BME280;40801;41.924;25.562;2023-04-04T01:18:40;98289.97;;;12.46;83.18
54900;BME280;40801;41.924;25.562;2023-04-04T01:21:09;98274.63;;;12.50;82.85
54900;BME280;40801;41.924;25.562;2023-04-04T01:24:05;98268.34;;;12.46;83.00
54900;BME280;40801;41.924;25.562;2023-04-04T01:26:30;98262.94;;;12.46;83.39
54900;BME280;40801;41.924;25.562;2023-04-04T01:28:57;98266.00;;;12.44;83.27
54900;BME280;40801;41.924;25.562;2023-04-04T01:31:40;98262.03;;;12.41;83.78
54900;BME280;40801;41.924;25.562;2023-04-04T01:36:42;98261.94;;;12.38;82.76
54900;BME280;40801;41.924;25.562;2023-04-04T01:39:17;98256.97;;;12.40;82.91
54900;BME280;40801;41.924;25.562;2023-04-04T01:41:47;98252.59;;;12.35;83.22
54900;BME280;40801;41.924;25.562;2023-04-04T01:44:13;98252.59;;;12.35;83.14
54900;BME280;40801;41.924;25.562;2023-04-04T01:46:40;98262.97;;;12.33;83.21
54900;BME280;40801;41.924;25.562;2023-04-04T01:49:05;98266.09;;;12.35;82.72
54900;BME280;40801;41.924;25.562;2023-04-04T01:51:31;98265.31;;;12.35;82.97
54900;BME280;40801;41.924;25.562;2023-04-04T01:53:56;98251.72;;;12.31;83.39
54900;BME280;40801;41.924;25.562;2023-04-04T01:56:22;98246.75;;;12.33;83.39
54900;BME280;40801;41.924;25.562;2023-04-04T01:58:47;98247.78;;;12.29;83.55
54900;BME280;40801;41.924;25.562;2023-04-04T02:01:13;98251.97;;;12.26;83.39
54900;BME280;40801;41.924;25.562;2023-04-04T02:03:38;98252.84;;;12.30;83.07
54900;BME280;40801;41.924;25.562;2023-04-04T02:06:04;98252.75;;;12.27;83.38
54900;BME280;40801;41.924;25.562;2023-04-04T02:08:29;98236.69;;;12.18;83.99
54900;BME280;40801;41.924;25.562;2023-04-04T02:10:58;98235.63;;;12.23;83.53
54900;BME280;40801;41.924;25.562;2023-04-04T02:13:24;98232.50;;;12.21;83.28
54900;BME280;40801;41.924;25.562;2023-04-04T02:15:52;98229.00;;;12.20;83.61
54900;BME280;40801;41.924;25.562;2023-04-04T02:18:17;98215.75;;;12.15;83.85
54900;BME280;40801;41.924;25.562;2023-04-04T02:20:43;98198.97;;;12.09;84.27
54900;BME280;40801;41.924;25.562;2023-04-04T02:23:08;98191.53;;;12.06;83.92
54900;BME280;40801;41.924;25.562;2023-04-04T02:25:34;98192.47;;;11.98;84.48
54900;BME280;40801;41.924;25.562;2023-04-04T02:27:59;98198.31;;;12.00;84.27
54900;BME280;40801;41.924;25.562;2023-04-04T02:30:25;98202.41;;;11.94;84.31
54900;BME280;40801;41.924;25.562;2023-04-04T02:32:51;98211.97;;;11.92;84.49
54900;BME280;40801;41.924;25.562;2023-04-04T02:35:17;98210.84;;;11.93;84.65
54900;BME280;40801;41.924;25.562;2023-04-04T02:37:44;98204.66;;;11.92;85.11
54900;BME280;40801;41.924;25.562;2023-04-04T02:40:10;98194.28;;;11.94;84.37
54900;BME280;40801;41.924;25.562;2023-04-04T02:42:36;98192.03;;;11.96;84.42
54900;BME280;40801;41.924;25.562;2023-04-04T02:45:01;98187.06;;;11.98;84.17
54900;BME280;40801;41.924;25.562;2023-04-04T02:47:27;98185.06;;;11.95;84.16
54900;BME280;40801;41.924;25.562;2023-04-04T02:49:52;98177.31;;;11.94;84.39
54900;BME280;40801;41.924;25.562;2023-04-04T02:52:19;98186.88;;;11.91;84.95
54900;BME280;40801;41.924;25.562;2023-04-04T02:54:45;98179.56;;;11.92;84.72
54900;BME280;40801;41.924;25.562;2023-04-04T02:57:10;98173.13;;;11.96;84.72
54900;BME280;40801;41.924;25.562;2023-04-04T02:59:36;98183.25;;;11.99;85.13
54900;BME280;40801;41.924;25.562;2023-04-04T03:02:02;98187.28;;;12.05;84.57
54900;BME280;40801;41.924;25.562;2023-04-04T03:04:27;98195.28;;;12.02;85.06
54900;BME280;40801;41.924;25.562;2023-04-04T03:06:53;98191.09;;;12.04;84.58
54900;BME280;40801;41.924;25.562;2023-04-04T03:09:18;98187.66;;;11.92;86.07
54900;BME280;40801;41.924;25.562;2023-04-04T03:11:44;98192.22;;;12.03;85.08
54900;BME280;40801;41.924;25.562;2023-04-04T03:14:10;98196.59;;;12.08;84.80
54900;BME280;40801;41.924;25.562;2023-04-04T03:16:36;98198.88;;;12.06;85.08
54900;BME280;40801;41.924;25.562;2023-04-04T03:19:01;98190.75;;;12.06;85.05
54900;BME280;40801;41.924;25.562;2023-04-04T03:21:27;98189.28;;;12.08;84.41
54900;BME280;40801;41.924;25.562;2023-04-04T03:23:52;98191.97;;;12.08;84.44
54900;BME280;40801;41.924;25.562;2023-04-04T03:26:18;98194.69;;;12.08;84.62
54900;BME280;40801;41.924;25.562;2023-04-04T03:28:43;98190.91;;;11.97;85.45
54900;BME280;40801;41.924;25.562;2023-04-04T03:31:08;98199.13;;;12.01;85.09
54900;BME280;40801;41.924;25.562;2023-04-04T03:33:37;98197.97;;;12.02;85.49
54900;BME280;40801;41.924;25.562;2023-04-04T03:36:09;98209.47;;;11.99;85.97
54900;BME280;40801;41.924;25.562;2023-04-04T03:38:35;98206.88;;;12.02;85.60
54900;BME280;40801;41.924;25.562;2023-04-04T03:41:02;98213.25;;;12.10;85.07
54900;BME280;40801;41.924;25.562;2023-04-04T03:43:29;98215.19;;;12.09;84.93
54900;BME280;40801;41.924;25.562;2023-04-04T03:46:02;98223.50;;;12.17;85.01
54900;BME280;40801;41.924;25.562;2023-04-04T03:48:28;98214.97;;;12.15;84.98
54900;BME280;40801;41.924;25.562;2023-04-04T03:50:54;98213.47;;;12.17;84.96
54900;BME280;40801;41.924;25.562;2023-04-04T03:53:19;98200.75;;;12.18;85.26
54900;BME280;40801;41.924;25.562;2023-04-04T03:55:45;98211.56;;;12.18;85.13
54900;BME280;40801;41.924;25.562;2023-04-04T03:58:10;98220.47;;;12.18;85.70
54900;BME280;40801;41.924;25.562;2023-04-04T04:00:36;98222.47;;;12.21;85.66
54900;BME280;40801;41.924;25.562;2023-04-04T04:03:01;98222.75;;;12.32;84.96
54900;BME280;40801;41.924;25.562;2023-04-04T04:05:27;98219.63;;;12.30;85.20
54900;BME280;40801;41.924;25.562;2023-04-04T04:07:52;98213.50;;;12.33;85.07
54900;BME280;40801;41.924;25.562;2023-04-04T04:10:17;98218.91;;;12.33;84.80
54900;BME280;40801;41.924;25.562;2023-04-04T04:12:43;98229.03;;;12.36;84.35
54900;BME280;40801;41.924;25.562;2023-04-04T04:15:08;98220.50;;;12.34;85.25
54900;BME280;40801;41.924;25.562;2023-04-04T04:17:38;98220.25;;;12.39;84.47
54900;BME280;40801;41.924;25.562;2023-04-04T04:20:05;98214.50;;;12.40;84.62
54900;BME280;40801;41.924;25.562;2023-04-04T04:22:31;98215.28;;;12.41;84.76
54900;BME280;40801;41.924;25.562;2023-04-04T04:24:56;98216.97;;;12.46;84.36
54900;BME280;40801;41.924;25.562;2023-04-04T04:27:22;98215.28;;;12.41;84.54
54900;BME280;40801;41.924;25.562;2023-04-04T04:29:47;98220.16;;;12.35;84.69
54900;BME280;40801;41.924;25.562;2023-04-04T04:32:17;98217.53;;;12.39;84.64
54900;BME280;40801;41.924;25.562;2023-04-04T04:34:42;98228.59;;;12.34;84.91
54900;BME280;40801;41.924;25.562;2023-04-04T04:37:08;98226.25;;;12.32;84.91
54900;BME280;40801;41.924;25.562;2023-04-04T04:39:33;98220.59;;;12.37;84.82
54900;BME280;40801;41.924;25.562;2023-04-04T04:42:00;98225.44;;;12.44;84.49
54900;BME280;40801;41.924;25.562;2023-04-04T04:44:25;98218.19;;;12.48;84.18
54900;BME280;40801;41.924;25.562;2023-04-04T04:46:51;98226.22;;;12.45;84.69
54900;BME280;40801;41.924;25.562;2023-04-04T04:49:16;98231.41;;;12.37;84.62
54900;BME280;40801;41.924;25.562;2023-04-04T04:51:41;98234.34;;;12.32;85.28
54900;BME280;40801;41.924;25.562;2023-04-04T04:54:07;98241.19;;;12.42;84.75
54900;BME280;40801;41.924;25.562;2023-04-04T04:56:32;98224.38;;;12.49;84.38
54900;BME280;40801;41.924;25.562;2023-04-04T04:58:58;98218.63;;;12.50;84.59
54900;BME280;40801;41.924;25.562;2023-04-04T05:01:23;98225.44;;;12.60;84.38
54900;BME280;40801;41.924;25.562;2023-04-04T05:03:49;98229.44;;;12.50;85.14
54900;BME280;40801;41.924;25.562;2023-04-04T05:06:14;98221.63;;;12.61;84.29
54900;BME280;40801;41.924;25.562;2023-04-04T05:08:40;98224.16;;;12.69;83.88
54900;BME280;40801;41.924;25.562;2023-04-04T05:11:05;98230.13;;;12.75;83.68
54900;BME280;40801;41.924;25.562;2023-04-04T05:13:31;98227.16;;;12.80;83.76
54900;BME280;40801;41.924;25.562;2023-04-04T05:15:56;98228.47;;;12.86;84.14
54900;BME280;40801;41.924;25.562;2023-04-04T05:18:22;98222.88;;;12.95;83.44
54900;BME280;40801;41.924;25.562;2023-04-04T05:20:54;98222.09;;;12.94;83.21
54900;BME280;40801;41.924;25.562;2023-04-04T05:23:19;98220.38;;;13.02;83.17
54900;BME280;40801;41.924;25.562;2023-04-04T05:25:47;98224.72;;;13.07;82.99
54900;BME280;40801;41.924;25.562;2023-04-04T05:28:13;98225.88;;;13.06;83.34
54900;BME280;40801;41.924;25.562;2023-04-04T05:30:38;98224.72;;;12.91;83.23
54900;BME280;40801;41.924;25.562;2023-04-04T05:33:05;98234.91;;;12.97;82.83
54900;BME280;40801;41.924;25.562;2023-04-04T05:35:31;98232.81;;;12.91;83.19
54900;BME280;40801;41.924;25.562;2023-04-04T05:37:56;98239.56;;;12.97;82.75
54900;BME280;40801;41.924;25.562;2023-04-04T05:40:21;98238.41;;;12.98;82.59
54900;BME280;40801;41.924;25.562;2023-04-04T05:42:57;98248.66;;;13.05;82.01
54900;BME280;40801;41.924;25.562;2023-04-04T05:45:23;98244.38;;;13.03;82.33
54900;BME280;40801;41.924;25.562;2023-04-04T05:47:48;98246.72;;;13.05;82.33
54900;BME280;40801;41.924;25.562;2023-04-04T05:50:14;98238.69;;;13.09;82.42
54900;BME280;40801;41.924;25.562;2023-04-04T05:52:40;98243.75;;;13.10;82.39
54900;BME280;40801;41.924;25.562;2023-04-04T05:55:05;98234.44;;;13.08;82.07
54900;BME280;40801;41.924;25.562;2023-04-04T05:57:31;98234.25;;;13.16;82.18
54900;BME280;40801;41.924;25.562;2023-04-04T05:59:57;98227.72;;;13.17;81.72
54900;BME280;40801;41.924;25.562;2023-04-04T06:02:22;98230.31;;;13.14;81.97
54900;BME280;40801;41.924;25.562;2023-04-04T06:04:48;98230.06;;;13.19;81.82
54900;BME280;40801;41.924;25.562;2023-04-04T06:07:13;98228.59;;;13.21;81.57
54900;BME280;40801;41.924;25.562;2023-04-04T06:09:40;98229.88;;;13.27;81.22
54900;BME280;40801;41.924;25.562;2023-04-04T06:12:06;98229.47;;;13.25;81.43
54900;BME280;40801;41.924;25.562;2023-04-04T06:14:33;98223.88;;;13.34;81.37
54900;BME280;40801;41.924;25.562;2023-04-04T06:16:59;98218.91;;;13.36;81.00
54900;BME280;40801;41.924;25.562;2023-04-04T06:19:25;98220.38;;;13.18;81.83
54900;BME280;40801;41.924;25.562;2023-04-04T06:21:50;98214.97;;;13.33;81.55
54900;BME280;40801;41.924;25.562;2023-04-04T06:24:16;98214.06;;;13.45;81.42
54900;BME280;40801;41.924;25.562;2023-04-04T06:26:41;98214.13;;;13.64;81.07
54900;BME280;40801;41.924;25.562;2023-04-04T06:29:06;98202.94;;;13.66;80.92
54900;BME280;40801;41.924;25.562;2023-04-04T06:31:32;98200.69;;;13.87;80.23
54900;BME280;40801;41.924;25.562;2023-04-04T06:33:57;98206.06;;;14.03;80.45
54900;BME280;40801;41.924;25.562;2023-04-04T06:36:23;98213.47;;;14.06;79.90
54900;BME280;40801;41.924;25.562;2023-04-04T06:38:48;98212.47;;;14.14;78.93
54900;BME280;40801;41.924;25.562;2023-04-04T06:41:14;98219.81;;;14.14;79.19
54900;BME280;40801;41.924;25.562;2023-04-04T06:43:39;98213.97;;;14.12;79.18
54900;BME280;40801;41.924;25.562;2023-04-04T06:46:05;98215.41;;;14.06;79.47
54900;BME280;40801;41.924;25.562;2023-04-04T06:48:31;98210.19;;;13.97;79.01
54900;BME280;40801;41.924;25.562;2023-04-04T06:50:56;98213.44;;;13.87;79.53
54900;BME280;40801;41.924;25.562;2023-04-04T06:53:22;98205.19;;;13.99;79.15
54900;BME280;40801;41.924;25.562;2023-04-04T06:55:48;98207.63;;;14.04;79.20
54900;BME280;40801;41.924;25.562;2023-04-04T06:58:13;98207.03;;;14.14;79.00
54900;BME280;40801;41.924;25.562;2023-04-04T07:00:38;98200.22;;;14.20;78.92
54900;BME280;40801;41.924;25.562;2023-04-04T07:03:04;98200.84;;;14.33;78.77
54900;BME280;40801;41.924;25.562;2023-04-04T07:05:30;98199.50;;;14.43;77.89
54900;BME280;40801;41.924;25.562;2023-04-04T07:07:56;98198.09;;;14.49;77.67
54900;BME280;40801;41.924;25.562;2023-04-04T07:10:23;98205.50;;;14.52;77.52
54900;BME280;40801;41.924;25.562;2023-04-04T07:12:49;98204.19;;;14.65;76.99
54900;BME280;40801;41.924;25.562;2023-04-04T07:15:15;98208.03;;;14.64;76.99
54900;BME280;40801;41.924;25.562;2023-04-04T07:17:40;98198.41;;;14.67;77.08
54900;BME280;40801;41.924;25.562;2023-04-04T07:20:07;98200.19;;;14.59;77.10
54900;BME280;40801;41.924;25.562;2023-04-04T07:22:39;98189.53;;;14.70;77.38
54900;BME280;40801;41.924;25.562;2023-04-04T07:25:06;98193.94;;;14.55;77.43
54900;BME280;40801;41.924;25.562;2023-04-04T07:27:31;98193.53;;;14.76;76.13
54900;BME280;40801;41.924;25.562;2023-04-04T07:29:57;98194.50;;;14.87;75.74
54900;BME280;40801;41.924;25.562;2023-04-04T07:32:22;98189.88;;;14.68;76.19
54900;BME280;40801;41.924;25.562;2023-04-04T07:34:48;98195.09;;;14.77;76.25
54900;BME280;40801;41.924;25.562;2023-04-04T07:37:14;98198.41;;;14.90;75.88
54900;BME280;40801;41.924;25.562;2023-04-04T07:39:40;98199.16;;;14.86;75.56
54900;BME280;40801;41.924;25.562;2023-04-04T07:42:06;98206.44;;;14.82;75.31
54900;BME280;40801;41.924;25.562;2023-04-04T07:44:31;98205.53;;;14.75;75.64
54900;BME280;40801;41.924;25.562;2023-04-04T07:46:56;98201.59;;;14.72;75.55
54900;BME280;40801;41.924;25.562;2023-04-04T07:49:22;98202.16;;;14.81;75.65
54900;BME280;40801;41.924;25.562;2023-04-04T07:51:47;98195.09;;;15.00;75.56
54900;BME280;40801;41.924;25.562;2023-04-04T07:54:13;98200.63;;;15.30;75.15
54900;BME280;40801;41.924;25.562;2023-04-04T07:56:38;98202.47;;;15.48;74.09
54900;BME280;40801;41.924;25.562;2023-04-04T07:59:04;98208.16;;;15.63;73.39
54900;BME280;40801;41.924;25.562;2023-04-04T08:01:29;98198.28;;;15.81;73.15
54900;BME280;40801;41.924;25.562;2023-04-04T08:03:55;98200.94;;;16.04;72.55
54900;BME280;40801;41.924;25.562;2023-04-04T08:06:21;98202.63;;;16.16;72.10
54900;BME280;40801;41.924;25.562;2023-04-04T08:08:46;98202.56;;;16.12;71.27
54900;BME280;40801;41.924;25.562;2023-04-04T08:11:12;98197.84;;;16.05;71.03
54900;BME280;40801;41.924;25.562;2023-04-04T08:13:38;98203.66;;;16.04;70.36
54900;BME280;40801;41.924;25.562;2023-04-04T08:16:04;98198.88;;;15.94;70.23
54900;BME280;40801;41.924;25.562;2023-04-04T08:18:29;98197.97;;;16.16;70.43
54900;BME280;40801;41.924;25.562;2023-04-04T08:20:54;98202.47;;;16.35;70.08
54900;BME280;40801;41.924;25.562;2023-04-04T08:23:20;98196.63;;;16.70;68.78
54900;BME280;40801;41.924;25.562;2023-04-04T08:25:46;98200.31;;;16.88;67.83
54900;BME280;40801;41.924;25.562;2023-04-04T08:28:11;98199.34;;;17.07;66.52
54900;BME280;40801;41.924;25.562;2023-04-04T08:30:38;98192.50;;;17.31;64.98
54900;BME280;40801;41.924;25.562;2023-04-04T08:33:03;98199.72;;;17.60;64.47
54900;BME280;40801;41.924;25.562;2023-04-04T08:35:29;98202.66;;;17.92;64.23
54900;BME280;40801;41.924;25.562;2023-04-04T08:37:54;98210.97;;;18.17;63.14
54900;BME280;40801;41.924;25.562;2023-04-04T08:40:21;98210.31;;;18.52;62.22
54900;BME280;40801;41.924;25.562;2023-04-04T08:42:49;98213.16;;;18.99;59.74
54900;BME280;40801;41.924;25.562;2023-04-04T08:45:16;98208.81;;;18.76;59.91
54900;BME280;40801;41.924;25.562;2023-04-04T08:47:43;98214.72;;;18.93;58.81
54900;BME280;40801;41.924;25.562;2023-04-04T08:50:11;98219.78;;;19.79;58.50
54900;BME280;40801;41.924;25.562;2023-04-04T08:52:36;98230.66;;;20.08;56.60
54900;BME280;40801;41.924;25.562;2023-04-04T08:55:04;98220.13;;;20.03;55.36
54900;BME280;40801;41.924;25.562;2023-04-04T08:57:29;98232.31;;;19.70;55.67
54900;BME280;40801;41.924;25.562;2023-04-04T08:59:55;98225.28;;;19.40;55.58
54900;BME280;40801;41.924;25.562;2023-04-04T09:02:35;98231.91;;;18.93;55.19
54900;BME280;40801;41.924;25.562;2023-04-04T09:05:01;98229.88;;;18.69;56.88
54900;BME280;40801;41.924;25.562;2023-04-04T09:07:27;98234.53;;;18.57;57.30
54900;BME280;40801;41.924;25.562;2023-04-04T09:09:54;98230.94;;;18.46;57.94
54900;BME280;40801;41.924;25.562;2023-04-04T09:12:21;98235.63;;;18.39;56.73
54900;BME280;40801;41.924;25.562;2023-04-04T09:14:50;98239.47;;;18.23;57.85
54900;BME280;40801;41.924;25.562;2023-04-04T09:17:18;98232.06;;;18.27;57.69
54900;BME280;40801;41.924;25.562;2023-04-04T09:19:44;98233.16;;;18.12;57.95
54900;BME280;40801;41.924;25.562;2023-04-04T09:22:09;98233.47;;;17.93;58.49
54900;BME280;40801;41.924;25.562;2023-04-04T09:24:39;98233.94;;;18.09;57.81
54900;BME280;40801;41.924;25.562;2023-04-04T09:27:06;98237.25;;;17.78;58.38
54900;BME280;40801;41.924;25.562;2023-04-04T09:29:32;98231.47;;;17.86;58.89
54900;BME280;40801;41.924;25.562;2023-04-04T09:31:58;98234.66;;;17.99;58.74
54900;BME280;40801;41.924;25.562;2023-04-04T09:34:24;98227.31;;;18.14;58.69
54900;BME280;40801;41.924;25.562;2023-04-04T09:36:49;98225.41;;;18.21;58.82
54900;BME280;40801;41.924;25.562;2023-04-04T09:39:15;98221.97;;;18.46;58.59
54900;BME280;40801;41.924;25.562;2023-04-04T09:41:45;98216.66;;;18.81;58.00
54900;BME280;40801;41.924;25.562;2023-04-04T09:44:11;98218.66;;;19.41;56.48
54900;BME280;40801;41.924;25.562;2023-04-04T09:46:38;98217.47;;;19.71;55.55
54900;BME280;40801;41.924;25.562;2023-04-04T09:49:03;98227.16;;;20.07;55.34
54900;BME280;40801;41.924;25.562;2023-04-04T09:51:33;98220.66;;;20.67;52.79
54900;BME280;40801;41.924;25.562;2023-04-04T09:54:03;98220.31;;;20.62;53.86
54900;BME280;40801;41.924;25.562;2023-04-04T09:56:32;98211.72;;;20.56;53.07
54900;BME280;40801;41.924;25.562;2023-04-04T09:58:59;98218.06;;;20.35;53.01
54900;BME280;40801;41.924;25.562;2023-04-04T10:01:25;98211.41;;;20.33;53.03
54900;BME280;40801;41.924;25.562;2023-04-04T10:03:52;98208.34;;;20.97;52.87
54900;BME280;40801;41.924;25.562;2023-04-04T10:06:19;98212.31;;;21.44;52.15
54900;BME280;40801;41.924;25.562;2023-04-04T10:08:44;98210.88;;;21.29;52.05
54900;BME280;40801;41.924;25.562;2023-04-04T10:11:11;98204.91;;;21.38;51.54
54900;BME280;40801;41.924;25.562;2023-04-04T10:13:37;98207.44;;;21.14;51.69
54900;BME280;40801;41.924;25.562;2023-04-04T10:16:08;98209.19;;;20.87;51.63
54900;BME280;40801;41.924;25.562;2023-04-04T10:18:35;98217.53;;;20.65;52.30
54900;BME280;40801;41.924;25.562;2023-04-04T10:21:03;98210.22;;;20.37;52.75
54900;BME280;40801;41.924;25.562;2023-04-04T10:23:29;98213.75;;;20.34;53.24
54900;BME280;40801;41.924;25.562;2023-04-04T10:25:55;98215.72;;;20.30;53.64
54900;BME280;40801;41.924;25.562;2023-04-04T10:28:22;98211.81;;;20.31;53.44
54900;BME280;40801;41.924;25.562;2023-04-04T10:31:23;98205.97;;;20.19;53.29
54900;BME280;40801;41.924;25.562;2023-04-04T10:36:42;98199.78;;;20.07;53.61
54900;BME280;40801;41.924;25.562;2023-04-04T10:39:13;98200.13;;;20.20;53.36
54900;BME280;40801;41.924;25.562;2023-04-04T10:41:39;98195.03;;;20.26;53.15
54900;BME280;40801;41.924;25.562;2023-04-04T10:44:23;98197.38;;;20.27;52.85
54900;BME280;40801;41.924;25.562;2023-04-04T10:46:53;98191.59;;;19.93;53.45
54900;BME280;40801;41.924;25.562;2023-04-04T10:49:20;98190.41;;;20.08;53.35
54900;BME280;40801;41.924;25.562;2023-04-04T10:51:46;98201.34;;;20.08;53.42
54900;BME280;40801;41.924;25.562;2023-04-04T10:54:12;98205.38;;;19.68;53.57
54900;BME280;40801;41.924;25.562;2023-04-04T10:56:38;98195.91;;;19.94;53.02
54900;BME280;40801;41.924;25.562;2023-04-04T10:59:10;98197.53;;;19.74;53.22
54900;BME280;40801;41.924;25.562;2023-04-04T11:01:56;98185.28;;;20.14;51.11
54900;BME280;40801;41.924;25.562;2023-04-04T11:07:16;98189.44;;;21.13;50.82
54900;BME280;40801;41.924;25.562;2023-04-04T11:09:52;98189.41;;;20.61;50.22
54900;BME280;40801;41.924;25.562;2023-04-04T11:12:26;98192.22;;;20.36;51.41
54900;BME280;40801;41.924;25.562;2023-04-04T11:17:56;98186.94;;;19.97;54.19
54900;BME280;40801;41.924;25.562;2023-04-04T11:20:30;98191.25;;;19.84;54.42
54900;BME280;40801;41.924;25.562;2023-04-04T11:25:31;98190.91;;;19.71;55.13
54900;BME280;40801;41.924;25.562;2023-04-04T11:27:58;98194.44;;;19.68;54.86
54900;BME280;40801;41.924;25.562;2023-04-04T11:30:28;98186.22;;;19.58;55.25
54900;BME280;40801;41.924;25.562;2023-04-04T11:33:01;98191.69;;;19.29;56.75
54900;BME280;40801;41.924;25.562;2023-04-04T11:35:26;98178.00;;;19.36;55.91
54900;BME280;40801;41.924;25.562;2023-04-04T11:40:18;98177.63;;;19.27;56.62
54900;BME280;40801;41.924;25.562;2023-04-04T11:42:44;98190.16;;;19.21;56.76
54900;BME280;40801;41.924;25.562;2023-04-04T11:45:19;98187.41;;;19.07;55.41
54900;BME280;40801;41.924;25.562;2023-04-04T11:47:48;98176.50;;;19.14;55.64
54900;BME280;40801;41.924;25.562;2023-04-04T11:50:14;98180.78;;;18.86;56.09
54900;BME280;40801;41.924;25.562;2023-04-04T11:52:41;98179.22;;;18.82;56.14
54900;BME280;40801;41.924;25.562;2023-04-04T11:55:17;98177.97;;;18.62;55.38
54900;BME280;40801;41.924;25.562;2023-04-04T11:57:45;98175.22;;;18.58;56.04
54900;BME280;40801;41.924;25.562;2023-04-04T12:00:12;98167.38;;;18.46;56.31
54900;BME280;40801;41.924;25.562;2023-04-04T12:02:51;98173.59;;;18.25;57.13
54900;BME280;40801;41.924;25.562;2023-04-04T12:05:17;98172.34;;;18.12;57.18
54900;BME280;40801;41.924;25.562;2023-04-04T12:07:42;98170.41;;;18.12;57.54
54900;BME280;40801;41.924;25.562;2023-04-04T12:10:09;98171.53;;;18.04;58.60
54900;BME280;40801;41.924;25.562;2023-04-04T12:12:36;98173.03;;;17.91;59.23
54900;BME280;40801;41.924;25.562;2023-04-04T12:15:05;98160.94;;;17.85;59.51
54900;BME280;40801;41.924;25.562;2023-04-04T12:17:32;98155.06;;;17.79;59.35
54900;BME280;40801;41.924;25.562;2023-04-04T12:19:58;98155.09;;;17.86;59.65
54900;BME280;40801;41.924;25.562;2023-04-04T12:22:24;98161.72;;;17.85;60.34
54900;BME280;40801;41.924;25.562;2023-04-04T12:24:49;98160.00;;;17.63;60.96
54900;BME280;40801;41.924;25.562;2023-04-04T12:27:15;98157.59;;;17.47;61.69
54900;BME280;40801;41.924;25.562;2023-04-04T12:29:41;98157.25;;;17.59;61.58
54900;BME280;40801;41.924;25.562;2023-04-04T12:32:09;98162.72;;;17.59;61.58
54900;BME280;40801;41.924;25.562;2023-04-04T12:34:41;98154.84;;;17.47;62.29
54900;BME280;40801;41.924;25.562;2023-04-04T12:37:08;98164.16;;;17.39;62.98
54900;BME280;40801;41.924;25.562;2023-04-04T12:39:39;98157.44;;;17.26;63.17
54900;BME280;40801;41.924;25.562;2023-04-04T12:42:10;98151.59;;;17.24;63.40
54900;BME280;40801;41.924;25.562;2023-04-04T12:44:37;98157.03;;;17.24;63.90
54900;BME280;40801;41.924;25.562;2023-04-04T12:47:08;98161.66;;;17.16;64.40
54900;BME280;40801;41.924;25.562;2023-04-04T12:52:04;98161.69;;;17.20;65.14
54900;BME280;40801;41.924;25.562;2023-04-04T12:54:33;98160.88;;;17.16;64.79
54900;BME280;40801;41.924;25.562;2023-04-04T12:57:01;98168.63;;;17.10;65.26
54900;BME280;40801;41.924;25.562;2023-04-04T12:59:29;98175.16;;;17.06;65.56
54900;BME280;40801;41.924;25.562;2023-04-04T13:01:56;98179.00;;;16.97;65.70
54900;BME280;40801;41.924;25.562;2023-04-04T13:04:22;98180.56;;;16.98;66.37
54900;BME280;40801;41.924;25.562;2023-04-04T13:06:48;98182.84;;;16.93;66.59